sensor_id;sensor_type;location;lat;lon;timestamp;P1;durP1;ratioP1;P2;durP2;ratioP2
9094;SDS011;4583;49.796;9.902;2022-10-16T00:00:12;4.73;;;1.50;;
9094;SDS011;4583;49.796;9.902;2022-10-16T00:10:14;4.60;;;1.20;;
9094;SDS011;4583;49.796;9.902;2022-10-16T00:20:15;3.37;;;1.60;;
9094;SDS011;4583;49.796;9.902;2022-10-16T00:30:17;2.07;;;1.50;;
9094;SDS011;4583;49.796;9.902;2022-10-16T00:40:19;3.63;;;1.40;;
9094;SDS011;4583;49.796;9.902;2022-10-16T01:00:26;1.83;;;1.50;;
9094;SDS011;4583;49.796;9.902;2022-10-16T01:10:45;3.53;;;1.73;;
9094;SDS011;4583;49.796;9.902;2022-10-16T01:21:12;4.70;;;1.97;;
9094;SDS011;4583;49.796;9.902;2022-10-16T01:31:25;2.80;;;1.93;;
9094;SDS011;4583;49.796;9.902;2022-10-16T01:41:31;3.70;;;1.13;;
9094;SDS011;4583;49.796;9.902;2022-10-16T01:51:38;2.03;;;1.10;;
9094;SDS011;4583;49.796;9.902;2022-10-16T02:01:40;1.30;;;1.10;;
9094;SDS011;4583;49.796;9.902;2022-10-16T02:11:48;1.60;;;1.37;;
9094;SDS011;4583;49.796;9.902;2022-10-16T02:21:58;1.37;;;1.20;;
9094;SDS011;4583;49.796;9.902;2022-10-16T02:32:04;3.57;;;1.30;;
9094;SDS011;4583;49.796;9.902;2022-10-16T02:42:12;4.07;;;1.40;;
9094;SDS011;4583;49.796;9.902;2022-10-16T02:52:15;3.37;;;1.80;;
9094;SDS011;4583;49.796;9.902;2022-10-16T03:02:17;3.30;;;1.80;;
9094;SDS011;4583;49.796;9.902;2022-10-16T03:12:18;3.97;;;1.67;;
9094;SDS011;4583;49.796;9.902;2022-10-16T03:22:20;5.23;;;1.73;;
9094;SDS011;4583;49.796;9.902;2022-10-16T03:32:22;7.83;;;1.70;;
9094;SDS011;4583;49.796;9.902;2022-10-16T03:42:26;2.37;;;1.33;;
9094;SDS011;4583;49.796;9.902;2022-10-16T03:52:27;1.73;;;1.63;;
9094;SDS011;4583;49.796;9.902;2022-10-16T04:02:29;2.73;;;1.80;;
9094;SDS011;4583;49.796;9.902;2022-10-16T04:12:31;3.07;;;2.00;;
9094;SDS011;4583;49.796;9.902;2022-10-16T04:22:32;4.00;;;2.00;;
9094;SDS011;4583;49.796;9.902;2022-10-16T04:32:34;2.67;;;2.10;;
9094;SDS011;4583;49.796;9.902;2022-10-16T04:42:36;3.70;;;2.10;;
9094;SDS011;4583;49.796;9.902;2022-10-16T04:52:38;4.07;;;2.20;;
9094;SDS011;4583;49.796;9.902;2022-10-16T05:02:39;11.97;;;2.20;;
9094;SDS011;4583;49.796;9.902;2022-10-16T05:12:41;1.97;;;1.80;;
9094;SDS011;4583;49.796;9.902;2022-10-16T05:22:43;10.80;;;2.70;;
9094;SDS011;4583;49.796;9.902;2022-10-16T05:32:48;4.73;;;2.00;;
9094;SDS011;4583;49.796;9.902;2022-10-16T05:42:54;7.60;;;2.60;;
9094;SDS011;4583;49.796;9.902;2022-10-16T05:52:56;3.13;;;1.97;;
9094;SDS011;4583;49.796;9.902;2022-10-16T06:02:58;2.47;;;2.00;;
9094;SDS011;4583;49.796;9.902;2022-10-16T06:12:59;4.37;;;1.63;;
9094;SDS011;4583;49.796;9.902;2022-10-16T06:23:01;3.50;;;2.03;;
9094;SDS011;4583;49.796;9.902;2022-10-16T06:33:05;4.53;;;2.30;;
9094;SDS011;4583;49.796;9.902;2022-10-16T06:43:06;6.03;;;2.20;;
9094;SDS011;4583;49.796;9.902;2022-10-16T06:53:08;5.27;;;3.50;;
9094;SDS011;4583;49.796;9.902;2022-10-16T07:03:10;4.97;;;2.07;;
9094;SDS011;4583;49.796;9.902;2022-10-16T07:13:11;3.33;;;1.90;;
9094;SDS011;4583;49.796;9.902;2022-10-16T07:23:16;5.20;;;2.20;;
9094;SDS011;4583;49.796;9.902;2022-10-16T07:33:18;9.67;;;3.27;;
9094;SDS011;4583;49.796;9.902;2022-10-16T07:43:20;7.10;;;2.93;;
9094;SDS011;4583;49.796;9.902;2022-10-16T07:53:22;4.97;;;2.70;;
9094;SDS011;4583;49.796;9.902;2022-10-16T08:03:27;7.40;;;2.77;;
9094;SDS011;4583;49.796;9.902;2022-10-16T08:13:28;7.80;;;2.90;;
9094;SDS011;4583;49.796;9.902;2022-10-16T08:23:31;5.37;;;2.80;;
9094;SDS011;4583;49.796;9.902;2022-10-16T08:33:35;7.03;;;2.40;;
9094;SDS011;4583;49.796;9.902;2022-10-16T08:43:41;4.73;;;2.57;;
9094;SDS011;4583;49.796;9.902;2022-10-16T08:53:59;4.00;;;2.10;;
9094;SDS011;4583;49.796;9.902;2022-10-16T09:25:47;4.63;;;2.33;;
9094;SDS011;4583;49.796;9.902;2022-10-16T09:35:51;4.60;;;2.30;;
9094;SDS011;4583;49.796;9.902;2022-10-16T09:45:56;5.07;;;2.70;;
9094;SDS011;4583;49.796;9.902;2022-10-16T09:56:06;4.20;;;2.63;;
9094;SDS011;4583;49.796;9.902;2022-10-16T10:06:25;2.97;;;2.00;;
9094;SDS011;4583;49.796;9.902;2022-10-16T10:16:29;7.77;;;3.00;;
9094;SDS011;4583;49.796;9.902;2022-10-16T10:26:31;15.40;;;3.23;;
9094;SDS011;4583;49.796;9.902;2022-10-16T10:36:40;9.07;;;3.47;;
9094;SDS011;4583;49.796;9.902;2022-10-16T10:46:48;5.80;;;2.40;;
9094;SDS011;4583;49.796;9.902;2022-10-16T11:07:25;4.13;;;2.50;;
9094;SDS011;4583;49.796;9.902;2022-10-16T11:17:35;5.43;;;1.97;;
9094;SDS011;4583;49.796;9.902;2022-10-16T11:38:14;2.47;;;1.70;;
9094;SDS011;4583;49.796;9.902;2022-10-16T11:58:38;6.10;;;2.30;;
9094;SDS011;4583;49.796;9.902;2022-10-16T12:08:53;6.67;;;2.20;;
9094;SDS011;4583;49.796;9.902;2022-10-16T12:19:15;3.10;;;1.67;;
9094;SDS011;4583;49.796;9.902;2022-10-16T12:39:29;5.37;;;2.00;;
9094;SDS011;4583;49.796;9.902;2022-10-16T12:49:32;14.23;;;1.93;;
9094;SDS011;4583;49.796;9.902;2022-10-16T13:10:23;2.90;;;1.70;;
9094;SDS011;4583;49.796;9.902;2022-10-16T13:20:48;3.60;;;1.60;;
9094;SDS011;4583;49.796;9.902;2022-10-16T13:31:01;9.67;;;2.70;;
9094;SDS011;4583;49.796;9.902;2022-10-16T13:41:04;6.37;;;2.17;;
9094;SDS011;4583;49.796;9.902;2022-10-16T13:51:14;3.10;;;1.80;;
9094;SDS011;4583;49.796;9.902;2022-10-16T14:01:18;6.03;;;1.93;;
9094;SDS011;4583;49.796;9.902;2022-10-16T14:11:28;6.50;;;2.80;;
9094;SDS011;4583;49.796;9.902;2022-10-16T14:21:30;6.70;;;2.37;;
9094;SDS011;4583;49.796;9.902;2022-10-16T14:31:33;3.93;;;2.20;;
9094;SDS011;4583;49.796;9.902;2022-10-16T14:41:49;9.93;;;1.73;;
9094;SDS011;4583;49.796;9.902;2022-10-16T14:51:51;4.37;;;1.70;;
9094;SDS011;4583;49.796;9.902;2022-10-16T15:01:53;7.50;;;2.10;;
9094;SDS011;4583;49.796;9.902;2022-10-16T15:11:55;3.67;;;2.20;;
9094;SDS011;4583;49.796;9.902;2022-10-16T15:21:57;7.43;;;2.07;;
9094;SDS011;4583;49.796;9.902;2022-10-16T15:31:58;6.37;;;2.00;;
9094;SDS011;4583;49.796;9.902;2022-10-16T15:42:00;5.23;;;2.00;;
9094;SDS011;4583;49.796;9.902;2022-10-16T15:52:02;5.13;;;2.57;;
9094;SDS011;4583;49.796;9.902;2022-10-16T16:02:04;5.30;;;3.10;;
9094;SDS011;4583;49.796;9.902;2022-10-16T16:12:06;6.97;;;3.20;;
9094;SDS011;4583;49.796;9.902;2022-10-16T16:22:08;7.73;;;3.70;;
9094;SDS011;4583;49.796;9.902;2022-10-16T16:32:13;8.03;;;3.30;;
9094;SDS011;4583;49.796;9.902;2022-10-16T16:42:15;4.27;;;3.10;;
9094;SDS011;4583;49.796;9.902;2022-10-16T16:52:17;7.07;;;3.60;;
9094;SDS011;4583;49.796;9.902;2022-10-16T17:02:19;7.97;;;3.87;;
9094;SDS011;4583;49.796;9.902;2022-10-16T17:12:20;6.63;;;3.90;;
9094;SDS011;4583;49.796;9.902;2022-10-16T17:22:22;12.17;;;3.90;;
9094;SDS011;4583;49.796;9.902;2022-10-16T17:32:25;12.77;;;6.03;;
9094;SDS011;4583;49.796;9.902;2022-10-16T17:42:27;22.03;;;8.80;;
9094;SDS011;4583;49.796;9.902;2022-10-16T17:52:29;10.70;;;6.53;;
9094;SDS011;4583;49.796;9.902;2022-10-16T18:02:31;11.20;;;5.63;;
9094;SDS011;4583;49.796;9.902;2022-10-16T18:12:34;15.97;;;8.30;;
9094;SDS011;4583;49.796;9.902;2022-10-16T18:22:35;10.27;;;6.60;;
9094;SDS011;4583;49.796;9.902;2022-10-16T18:32:37;11.67;;;6.10;;
9094;SDS011;4583;49.796;9.902;2022-10-16T18:42:39;11.27;;;5.73;;
9094;SDS011;4583;49.796;9.902;2022-10-16T18:52:46;7.30;;;5.40;;
9094;SDS011;4583;49.796;9.902;2022-10-16T19:02:48;12.53;;;5.63;;
9094;SDS011;4583;49.796;9.902;2022-10-16T19:12:50;12.33;;;5.43;;
9094;SDS011;4583;49.796;9.902;2022-10-16T19:22:52;12.47;;;5.50;;
9094;SDS011;4583;49.796;9.902;2022-10-16T19:32:56;8.90;;;4.97;;
9094;SDS011;4583;49.796;9.902;2022-10-16T19:42:58;12.00;;;5.30;;
9094;SDS011;4583;49.796;9.902;2022-10-16T19:53:00;9.70;;;5.30;;
9094;SDS011;4583;49.796;9.902;2022-10-16T20:03:01;8.80;;;5.33;;
9094;SDS011;4583;49.796;9.902;2022-10-16T20:13:03;8.70;;;5.97;;
9094;SDS011;4583;49.796;9.902;2022-10-16T20:23:05;10.37;;;4.93;;
9094;SDS011;4583;49.796;9.902;2022-10-16T20:33:07;11.73;;;5.27;;
9094;SDS011;4583;49.796;9.902;2022-10-16T20:43:14;9.67;;;6.17;;
9094;SDS011;4583;49.796;9.902;2022-10-16T20:53:17;9.33;;;6.10;;
9094;SDS011;4583;49.796;9.902;2022-10-16T21:03:19;9.87;;;5.43;;
9094;SDS011;4583;49.796;9.902;2022-10-16T21:13:21;12.10;;;5.77;;
9094;SDS011;4583;49.796;9.902;2022-10-16T21:23:27;11.40;;;5.83;;
9094;SDS011;4583;49.796;9.902;2022-10-16T21:33:29;9.03;;;6.03;;
9094;SDS011;4583;49.796;9.902;2022-10-16T21:43:31;9.47;;;5.10;;
9094;SDS011;4583;49.796;9.902;2022-10-16T21:53:33;7.93;;;4.50;;
9094;SDS011;4583;49.796;9.902;2022-10-16T22:03:35;10.03;;;4.30;;
9094;SDS011;4583;49.796;9.902;2022-10-16T22:13:36;14.87;;;4.40;;
9094;SDS011;4583;49.796;9.902;2022-10-16T22:23:39;7.13;;;4.43;;
9094;SDS011;4583;49.796;9.902;2022-10-16T22:33:41;12.70;;;4.87;;
9094;SDS011;4583;49.796;9.902;2022-10-16T22:43:44;12.37;;;4.47;;
9094;SDS011;4583;49.796;9.902;2022-10-16T22:53:48;12.03;;;4.90;;
9094;SDS011;4583;49.796;9.902;2022-10-16T23:03:50;20.73;;;6.13;;
9094;SDS011;4583;49.796;9.902;2022-10-16T23:13:51;10.37;;;5.10;;
9094;SDS011;4583;49.796;9.902;2022-10-16T23:23:53;11.37;;;4.73;;
9094;SDS011;4583;49.796;9.902;2022-10-16T23:33:55;10.80;;;5.90;;
9094;SDS011;4583;49.796;9.902;2022-10-16T23:43:57;23.73;;;6.23;;
9094;SDS011;4583;49.796;9.902;2022-10-16T23:53:59;38.33;;;6.33;;
